Latest Weather Observations for Cape Naturaliste

IDW60801

Issued at 2:12 pm WST Tuesday 26 March 2019 (issued every 10 minutes, with the page automatically refreshed every 10 minutes)

About weather observations | Map of weather stations | Latest weather observations for WA | Other Formats
Station Details ID: 009519 Name: CAPE NATURALISTE Lat: -33.54 Lon: 115.02 Height: 109.0 m
Data from the previous 72 hours. | See also: Recent months at Cape Naturaliste
Date/Time
WST
Temp
°C
App
Temp
°C
Dew
Point
°C
Rel
Hum
%
Delta-T
°C
Wind Press
QNH
hPa
Press
MSL
hPa
Rain since
9am
mm
Dir  Spd
km/h
Gust
km/h
Spd
kts
Gust
kts
26/02:00pm 26.9 23.4 7.4 29 10.4 E 15 20 8 11 1017.0 1016.7 0.0
26/01:30pm 25.6 22.2 9.0 35 9.1 E 17 24 9 13 1017.2 1016.9 0.0
26/01:00pm 25.3 21.3 9.2 36 8.8 E 20 26 11 14 1017.8 1017.5 0.0
26/12:30pm 22.6 19.0 10.4 46 6.7 E 20 26 11 14 1017.9 1017.6 0.0
26/12:00pm 22.8 18.5 10.6 46 6.7 ESE 24 28 13 15 1018.5 1018.2 0.0
26/11:30am 22.3 17.8 11.4 50 6.1 E 26 32 14 17 1018.6 1018.3 0.0
26/11:00am 22.4 17.3 10.5 47 6.5 E 28 35 15 19 1019.0 1018.6 0.0
26/10:30am 21.5 16.2 11.2 52 5.7 E 30 35 16 19 1019.3 1018.9 0.0
26/10:00am 20.1 14.8 11.1 56 4.9 E 30 39 16 21 1019.5 1019.1 0.0
26/09:30am 19.4 14.2 11.7 61 4.3 E 30 39 16 21 1019.9 1019.5 0.0
26/09:00am 19.0 13.5 12.0 64 3.9 E 32 44 17 24 1019.9 1019.5 0.0
26/08:30am 18.1 12.3 11.4 65 3.7 E 33 41 18 22 1019.9 1019.5 0.0
26/08:00am 16.8 11.1 11.1 69 3.1 E 32 41 17 22 1020.2 1019.8 0.0
26/07:30am 16.1 10.1 10.8 71 2.8 E 33 43 18 23 1020.1 1019.7 0.0
26/07:00am 15.7 9.4 10.9 73 2.6 E 35 43 19 23 1019.8 1019.4 0.0
26/06:30am 14.9 8.8 10.5 75 2.3 E 33 43 18 23 1019.6 1019.2 0.0
26/06:00am 14.8 8.3 10.2 74 2.4 ESE 35 43 19 23 1019.6 1019.2 0.0
26/05:30am 14.9 8.3 10.1 73 2.5 E 35 44 19 24 1019.4 1019.0 0.0
26/05:00am 15.1 9.0 10.3 73 2.5 ESE 33 41 18 22 1019.3 1018.9 0.0
26/04:30am 15.2 9.1 10.4 73 2.5 E 33 41 18 22 1019.5 1019.1 0.0
26/04:00am 15.3 9.1 10.1 71 2.7 E 33 44 18 24 1019.3 1018.9 0.0
26/03:30am 15.7 9.2 10.5 71 2.8 E 35 43 19 23 1019.4 1019.0 0.0
26/03:00am 16.1 9.7 10.6 70 2.9 E 35 46 19 25 1019.3 1018.9 0.0
26/02:30am 16.3 9.5 10.6 69 3.0 E 37 48 20 26 1019.1 1018.7 0.0
26/02:00am 16.6 9.4 10.5 67 3.2 E 39 48 21 26 1019.2 1018.8 0.0
26/01:30am 17.1 9.8 10.2 64 3.7 E 39 50 21 27 1019.6 1019.2 0.0
26/01:00am 17.5 11.2 11.1 66 3.5 E 35 46 19 25 1019.7 1019.3 0.0
26/12:30am 17.8 10.6 10.7 63 3.8 E 39 48 21 26 1019.6 1019.2 0.0
26/12:00am 18.1 11.6 10.5 61 4.1 E 35 48 19 26 1019.8 1019.4 0.0
 
Date/Time
WST
Temp
°C
App
Temp
°C
Dew
Point
°C
Rel
Hum
%
Delta-T
°C
Wind Press
QNH
hPa
Press
MSL
hPa
Rain since
9am
mm
Dir  Spd
km/h
Gust
km/h
Spd
kts
Gust
kts
25/11:30pm 17.8 12.2 11.4 66 3.5 E 32 41 17 22 1019.7 1019.3 0.0
25/11:00pm 18.0 11.7 8.8 55 4.8 ESE 32 41 17 22 1019.8 1019.4 0.0
25/10:30pm 18.7 12.6 8.4 51 5.3 ESE 30 39 16 21 1020.0 1019.6 0.0
25/10:00pm 17.9 13.1 8.7 55 4.8 ESE 24 33 13 18 1020.0 1019.6 0.0
25/09:30pm 17.3 13.3 9.2 59 4.2 ESE 20 28 11 15 1020.1 1019.7 0.0
25/09:00pm 17.0 13.3 10.1 64 3.7 ESE 20 26 11 14 1019.9 1019.5 0.0
25/08:30pm 17.0 13.4 10.4 65 3.5 SE 20 30 11 16 1020.0 1019.6 0.0
25/08:00pm 17.2 13.8 10.6 65 3.5 SE 19 24 10 13 1019.9 1019.5 0.0
25/07:30pm 17.4 15.1 10.3 63 3.8 S 13 17 7 9 1019.9 1019.5 0.0
25/07:00pm 18.4 14.9 10.3 59 4.3 S 19 22 10 12 1019.7 1019.3 0.0
25/06:30pm 18.5 16.2 10.3 59 4.4 SSW 13 19 7 10 1019.6 1019.2 0.0
25/06:00pm 19.4 18.2 12.9 66 3.7 SW 11 13 6 7 1019.7 1019.3 0.0
25/05:30pm 19.9 18.0 13.1 65 3.9 SW 15 26 8 14 1019.9 1019.5 0.0
25/05:00pm 20.0 16.9 11.5 58 4.7 SW 19 26 10 14 1019.9 1019.5 0.0
25/04:30pm 20.4 17.1 11.6 57 4.9 SW 20 30 11 16 1019.9 1019.5 0.0
25/04:00pm 20.6 16.4 11.0 54 5.3 SW 24 30 13 16 1020.1 1019.7 0.0
25/03:30pm 20.4 16.7 9.6 50 5.8 SW 19 30 10 16 1020.1 1019.7 0.0
25/03:00pm 21.1 17.0 10.0 49 6.0 SW 22 30 12 16 1020.2 1019.8 0.0
25/02:30pm 20.5 16.6 9.4 49 5.9 SW 20 28 11 15 1020.3 1019.9 0.0
25/02:00pm 23.2 19.4 7.7 37 8.1 E 17 24 9 13 1020.4 1020.0 0.0
25/01:30pm 22.3 19.0 8.1 40 7.5 E 15 20 8 11 1020.8 1020.4 0.0
25/01:00pm 22.6 19.5 8.7 41 7.4 ENE 15 20 8 11 1021.0 1020.7 0.0
25/12:30pm 21.4 17.4 8.3 43 6.9 ENE 19 28 10 15 1021.4 1021.1 0.0
25/12:00pm 21.1 16.6 8.4 44 6.7 E 22 30 12 16 1021.6 1021.3 0.0
25/11:30am 19.6 14.2 8.0 47 6.0 ENE 26 37 14 20 1022.1 1021.8 0.0
25/11:00am 19.4 14.6 9.0 51 5.5 E 24 35 13 19 1021.8 1021.5 0.0
25/10:30am 17.9 12.5 8.2 53 5.0 E 26 35 14 19 1022.3 1022.0 0.0
25/10:00am 16.9 11.2 8.3 57 4.4 E 28 39 15 21 1022.9 1022.6 0.0
25/09:30am 16.1 10.8 8.3 60 4.0 E 26 35 14 19 1023.3 1023.0 0.0
25/09:00am 15.3 10.4 8.3 63 3.5 E 24 35 13 19 1023.3 1023.0 -
25/08:30am 14.9 10.8 8.8 67 3.1 E 20 30 11 16 1023.4 1023.1 -
25/08:00am 13.5 9.3 8.4 71 2.5 ESE 20 28 11 15 1023.4 1023.1 -
25/07:30am 11.9 7.2 7.8 76 2.0 ESE 22 30 12 16 1023.1 1022.8 -
25/07:00am 9.9 4.9 6.6 80 1.5 ESE 22 28 12 15 1022.8 1022.5 -
25/06:30am 8.7 3.8 5.3 79 1.5 ESE 20 26 11 14 1022.5 1022.2 0.0
25/06:00am 8.7 3.8 5.3 79 1.5 ESE 20 26 11 14 1022.4 1022.1 0.0
25/05:30am 8.6 3.7 5.0 78 1.6 ESE 20 24 11 13 1022.1 1021.8 0.0
25/05:00am 8.7 4.3 4.9 77 1.7 SE 17 20 9 11 1022.0 1021.7 0.0
25/04:30am 9.4 4.7 5.2 75 1.9 SE 19 28 10 15 1021.6 1021.3 0.0
25/04:00am 9.8 5.0 5.4 74 2.0 SE 20 30 11 16 1021.6 1021.3 0.0
25/03:30am 10.3 4.4 5.9 74 2.0 ESE 26 35 14 19 1021.3 1021.0 0.0
25/03:00am 10.2 4.6 5.6 73 2.1 ESE 24 35 13 19 1021.4 1021.1 0.0
25/02:30am 10.2 5.0 5.4 72 2.2 SE 22 32 12 17 1021.4 1021.1 0.0
25/02:00am 10.5 4.5 5.5 71 2.3 SE 26 37 14 20 1021.4 1021.1 0.0
25/01:30am 10.8 3.7 5.6 70 2.4 SE 32 43 17 23 1021.0 1020.7 0.0
25/01:00am 11.2 4.0 5.7 69 2.6 SE 33 48 18 26 1021.2 1020.9 0.0
25/12:30am 11.6 4.1 6.1 69 2.6 SE 35 46 19 25 1021.3 1021.0 0.0
25/12:00am 11.8 4.8 6.1 68 2.7 SE 32 43 17 23 1021.4 1021.1 0.0
 
Date/Time
WST
Temp
°C
App
Temp
°C
Dew
Point
°C
Rel
Hum
%
Delta-T
°C
Wind Press
QNH
hPa
Press
MSL
hPa
Rain since
9am
mm
Dir  Spd
km/h
Gust
km/h
Spd
kts
Gust
kts
24/11:30pm 12.1 5.0 6.4 68 2.7 SE 33 44 18 24 1021.2 1020.9 0.0
24/11:00pm 12.5 5.0 6.5 67 2.9 SE 35 50 19 27 1021.5 1021.2 0.0
24/10:36pm 12.7 4.9 6.5 66 3.0 SE 37 56 20 30 1021.4 1021.1 0.0
24/10:30pm 12.9 4.7 6.7 66 3.0 SE 39 56 21 30 1021.2 1020.9 0.0
24/10:00pm 13.0 5.2 6.6 65 3.1 SE 37 52 20 28 1021.0 1020.7 0.0
24/09:30pm 13.4 5.2 6.7 64 3.2 SE 39 56 21 30 1020.8 1020.4 0.0
24/09:00pm 13.6 5.1 6.9 64 3.2 SE 41 56 22 30 1020.5 1020.1 0.0
24/08:32pm 13.9 5.8 7.0 63 3.4 SE 39 57 21 31 1020.2 1019.8 0.0
24/08:30pm 13.9 6.2 7.0 63 3.4 SE 37 54 20 29 1020.2 1019.8 0.0
24/08:03pm 14.1 7.1 6.9 62 3.5 SSE 33 54 18 29 1019.8 1019.4 0.0
24/08:00pm 14.0 7.0 6.8 62 3.5 SSE 33 46 18 25 1019.9 1019.5 0.0
24/07:30pm 14.4 8.0 7.0 61 3.6 SSE 30 43 16 23 1019.5 1019.1 0.0
24/07:00pm 15.2 8.3 7.3 59 3.9 S 33 43 18 23 1019.4 1019.0 0.0
24/06:35pm 15.9 9.2 7.4 57 4.2 S 32 50 17 27 1019.2 1018.8 0.0
24/06:30pm 15.9 10.0 7.4 57 4.2 S 28 39 15 21 1019.4 1019.0 0.0
24/06:00pm 17.3 12.2 7.6 53 4.9 S 24 33 13 18 1019.4 1019.0 0.0
24/05:30pm 18.8 13.3 7.6 48 5.7 SSE 26 35 14 19 1019.2 1018.8 0.0
24/05:00pm 19.9 14.1 7.9 46 6.2 SSE 28 37 15 20 1018.8 1018.5 0.0
24/04:30pm 21.1 16.2 8.4 44 6.7 SSE 24 33 13 18 1018.8 1018.5 0.0
24/04:00pm 21.9 16.4 7.7 40 7.4 SSE 26 35 14 19 1018.6 1018.3 0.0
24/03:30pm 22.7 17.4 6.9 36 8.2 SSE 24 32 13 17 1018.6 1018.3 0.0
24/03:00pm 22.9 17.4 7.4 37 8.1 SE 26 35 14 19 1018.4 1018.1 0.0
24/02:30pm 23.1 17.8 8.4 39 7.8 SSE 26 39 14 21 1018.5 1018.2 0.0
24/02:00pm 23.3 17.8 9.3 41 7.6 SE 28 41 15 22 1018.5 1018.2 0.0
24/01:30pm 23.6 18.5 7.7 36 8.4 SSE 24 35 13 19 1019.0 1018.6 0.0
24/01:00pm 23.5 18.1 8.0 37 8.2 SSE 26 44 14 24 1019.0 1018.6 0.0
24/12:30pm 24.0 19.6 10.3 42 7.6 SE 24 41 13 22 1019.5 1019.1 0.0
24/12:00pm 23.1 18.3 8.8 40 7.7 SSE 24 35 13 19 1019.9 1019.5 0.0
24/11:30am 22.7 18.3 8.8 41 7.4 SSE 22 35 12 19 1020.3 1019.9 0.0
24/11:00am 23.6 19.9 10.3 43 7.3 SE 20 30 11 16 1020.7 1020.3 0.0
24/10:30am 21.4 16.8 9.6 47 6.4 S 24 33 13 18 1020.7 1020.3 0.0
24/10:08am 20.4 14.8 8.7 47 6.2 S 28 46 15 25 1020.5 1020.1 0.0
24/10:00am 21.1 16.1 9.7 48 6.1 S 26 44 14 24 1020.7 1020.3 0.0
24/09:30am 18.6 12.9 9.7 56 4.7 S 30 46 16 25 1020.7 1020.3 0.0
24/09:00am 18.8 14.2 9.6 55 4.9 S 24 39 13 21 1020.7 1020.3 0.0
24/08:30am 18.5 13.9 11.1 62 4.0 S 26 37 14 20 1020.5 1020.1 0.0
24/08:00am 17.7 13.9 11.3 66 3.5 S 22 32 12 17 1020.3 1019.9 0.0
24/07:30am 16.7 12.5 11.2 70 3.0 S 24 30 13 16 1020.3 1019.9 0.0
24/07:00am 14.9 11.2 10.3 74 2.4 S 20 26 11 14 1019.8 1019.4 0.0
24/06:30am 14.8 10.6 9.6 71 2.7 S 22 28 12 15 1019.6 1019.2 0.0
24/06:00am 15.3 11.7 9.9 70 2.8 S 19 28 10 15 1019.4 1019.0 0.0
24/05:30am 15.3 11.6 9.4 68 3.1 S 19 26 10 14 1019.3 1018.9 0.0
24/05:00am 15.2 10.4 8.9 66 3.2 SSE 24 37 13 20 1019.2 1018.8 0.0
24/04:30am 14.9 10.9 9.1 68 3.0 SSE 20 28 11 15 1019.0 1018.6 0.0
24/04:00am 14.5 10.0 8.7 68 2.9 SSE 22 30 12 16 1018.8 1018.5 0.0
24/03:30am 14.6 10.7 8.8 68 3.0 SSE 19 28 10 15 1019.0 1018.6 0.0
24/03:00am 14.6 10.5 8.8 68 2.9 SSE 20 30 11 16 1019.1 1018.7 0.0
24/02:30am 14.3 9.8 8.7 69 2.8 S 22 30 12 16 1019.2 1018.8 0.0
24/02:00am 13.8 9.3 8.6 71 2.6 S 22 33 12 18 1019.2 1018.8 0.0
24/01:30am 13.1 9.5 8.2 72 2.4 SSE 17 30 9 16 1019.4 1019.0 0.0
24/01:00am 13.0 9.3 7.9 71 2.5 SSE 17 28 9 15 1019.6 1019.2 0.0
24/12:30am 13.3 8.7 8.0 70 2.6 S 22 30 12 16 1019.4 1019.0 0.0
24/12:00am 13.4 7.6 7.8 69 2.8 S 28 35 15 19 1019.6 1019.2 0.0
 
Date/Time
WST
Temp
°C
App
Temp
°C
Dew
Point
°C
Rel
Hum
%
Delta-T
°C
Wind Press
QNH
hPa
Press
MSL
hPa
Rain since
9am
mm
Dir  Spd
km/h
Gust
km/h
Spd
kts
Gust
kts
23/11:30pm 13.6 6.4 7.8 68 2.9 S 35 48 19 26 1019.5 1019.1 0.0
23/11:00pm 13.4 5.8 7.6 68 2.9 S 37 50 20 27 1019.5 1019.1 0.0
23/10:30pm 13.4 6.1 7.4 67 2.9 S 35 48 19 26 1019.5 1019.1 0.0
23/10:00pm 13.6 5.6 7.4 66 3.0 S 39 48 21 26 1019.5 1019.1 0.0
23/09:30pm 13.5 6.2 7.1 65 3.1 S 35 46 19 25 1019.6 1019.2 0.0
23/09:00pm 13.2 7.2 7.0 66 3.0 S 28 35 15 19 1019.7 1019.3 0.0
23/08:30pm 13.4 7.8 7.0 65 3.1 S 26 33 14 18 1019.4 1019.0 0.0
23/08:00pm 13.9 6.9 7.0 63 3.4 S 33 41 18 22 1019.3 1018.9 0.0
23/07:30pm 14.2 7.8 6.8 61 3.6 S 30 41 16 22 1019.3 1018.9 0.0
23/07:00pm 14.8 8.8 7.1 60 3.8 S 28 35 15 19 1019.1 1018.7 0.0
23/06:30pm 15.7 10.5 7.2 57 4.2 S 24 41 13 22 1019.1 1018.7 0.0
23/06:00pm 17.1 11.6 6.0 48 5.4 S 24 32 13 17 1018.7 1018.4 0.0
23/05:30pm 18.6 13.3 6.8 46 5.9 S 24 35 13 19 1018.5 1018.2 0.0
23/05:00pm 19.7 15.4 7.8 46 6.1 S 20 32 11 17 1018.4 1018.1 0.0
23/04:30pm 20.4 15.3 7.7 44 6.6 S 24 37 13 20 1018.3 1018.0 0.0
23/04:00pm 21.2 16.2 8.1 43 6.9 SSE 24 39 13 21 1018.1 1017.8 0.0
23/03:30pm 21.9 16.8 7.7 40 7.4 SSE 24 41 13 22 1018.1 1017.8 0.0
23/03:00pm 22.2 17.4 7.2 38 7.8 S 22 35 12 19 1018.2 1017.9 0.0
23/02:30pm 21.7 18.0 9.3 45 6.7 SSW 19 32 10 17 1018.5 1018.2 0.0

Other formats

Comma delimited format used in spreadsheet applications
http://www.bom.gov.au/fwo/IDW60801/IDW60801.94600.axf

JavaScript Object Notation format (JSON) in row-major order
http://www.bom.gov.au/fwo/IDW60801/IDW60801.94600.json

Data quality

Most of these data are generated automatically and are frequently updated. Quality checks on data are not normally performed. It is possible for incorrect values to appear. Refer to information at About Latest Weather Observations and please check the disclaimer before using these data.